createdAt,value
2018-11-29T00:00:07.067Z,1009.12
2018-11-29T00:01:07.054Z,1009.13
2018-11-29T00:02:07.045Z,1009.16
2018-11-29T00:03:07.030Z,1009.11
2018-11-29T00:04:07.048Z,1009.08
2018-11-29T00:05:07.030Z,1009.05
2018-11-29T00:06:06.997Z,1009.06
2018-11-29T00:07:06.990Z,1009.03
2018-11-29T00:08:06.976Z,1009.06
2018-11-29T00:09:06.971Z,1008.99
2018-11-29T00:10:06.977Z,1009.03
2018-11-29T00:11:06.945Z,1008.98
2018-11-29T00:12:06.932Z,1008.97
2018-11-29T00:13:06.920Z,1009.01
2018-11-29T00:14:06.910Z,1009.01
2018-11-29T00:15:06.910Z,1008.99
2018-11-29T00:16:06.894Z,1008.98
2018-11-29T00:17:06.875Z,1008.99
2018-11-29T00:18:06.869Z,1009.02
2018-11-29T00:19:06.854Z,1008.98
2018-11-29T00:20:06.854Z,1008.98
2018-11-29T00:21:06.831Z,1008.97
2018-11-29T00:22:06.834Z,1008.92
2018-11-29T00:23:06.826Z,1008.91
2018-11-29T00:24:06.796Z,1008.86
2018-11-29T00:25:06.798Z,1008.79
2018-11-29T00:26:06.779Z,1008.76
2018-11-29T00:27:06.770Z,1008.77
2018-11-29T00:28:06.774Z,1008.73
2018-11-29T00:29:06.745Z,1008.69
2018-11-29T00:30:06.741Z,1008.69
2018-11-29T00:31:06.718Z,1008.69
2018-11-29T00:32:06.708Z,1008.71
2018-11-29T00:33:06.702Z,1008.81
2018-11-29T00:34:06.686Z,1008.79
2018-11-29T00:35:06.689Z,1008.87
2018-11-29T00:36:06.665Z,1008.90
2018-11-29T00:37:07.388Z,1008.94
2018-11-29T00:38:06.642Z,1008.94
2018-11-29T00:39:06.648Z,1008.92
2018-11-29T00:40:06.629Z,1008.94
2018-11-29T00:41:06.613Z,1008.91
2018-11-29T00:42:06.597Z,1008.92
2018-11-29T00:43:06.586Z,1008.95
2018-11-29T00:44:06.577Z,1008.94
2018-11-29T00:45:06.581Z,1008.94
2018-11-29T00:46:06.554Z,1008.98
2018-11-29T00:47:06.544Z,1008.98
2018-11-29T00:48:06.528Z,1008.94
2018-11-29T00:49:06.532Z,1008.95
2018-11-29T00:50:06.539Z,1008.96
2018-11-29T00:51:06.518Z,1008.91
2018-11-29T00:52:06.484Z,1008.91
2018-11-29T00:53:06.472Z,1008.90
2018-11-29T00:54:06.464Z,1008.91
2018-11-29T00:55:06.450Z,1008.86
2018-11-29T00:56:06.453Z,1008.86
2018-11-29T00:57:06.428Z,1008.91
2018-11-29T00:58:06.418Z,1008.92
2018-11-29T00:59:06.409Z,1008.86
2018-11-29T01:00:06.398Z,1008.89
2018-11-29T01:01:06.400Z,1008.81
2018-11-29T01:02:06.390Z,1008.82
2018-11-29T01:03:06.361Z,1008.84
2018-11-29T01:04:06.355Z,1008.84
2018-11-29T01:05:06.341Z,1008.79
2018-11-29T01:06:06.344Z,1008.79
2018-11-29T01:07:06.323Z,1008.80
2018-11-29T01:08:06.306Z,1008.75
2018-11-29T01:09:06.295Z,1008.75
2018-11-29T01:10:06.288Z,1008.76
2018-11-29T01:11:06.283Z,1008.82
2018-11-29T01:12:06.276Z,1008.83
2018-11-29T01:13:06.257Z,1008.91
2018-11-29T01:14:06.265Z,1008.96
2018-11-29T01:15:06.227Z,1009.00
2018-11-29T01:16:06.228Z,1009.04
2018-11-29T01:17:06.205Z,1008.99
2018-11-29T01:18:06.194Z,1008.97
2018-11-29T01:19:06.198Z,1008.92
2018-11-29T01:20:06.840Z,1008.89
2018-11-29T01:21:06.172Z,1008.89
2018-11-29T01:22:06.151Z,1008.91
2018-11-29T01:23:06.141Z,1008.93
2018-11-29T01:24:06.128Z,1008.93
2018-11-29T01:25:06.116Z,1008.91
2018-11-29T01:26:06.117Z,1008.92
2018-11-29T01:27:06.098Z,1008.94
2018-11-29T01:28:06.083Z,1008.95
2018-11-29T01:29:06.084Z,1008.96
2018-11-29T01:30:06.066Z,1008.95
2018-11-29T01:31:06.070Z,1008.94
2018-11-29T01:32:06.042Z,1008.93
2018-11-29T01:33:06.029Z,1008.88
2018-11-29T01:34:06.018Z,1008.92
2018-11-29T01:35:06.005Z,1008.94
2018-11-29T01:36:06.010Z,1008.94
2018-11-29T01:37:06.010Z,1008.95
2018-11-29T01:38:05.971Z,1009.04
2018-11-29T01:39:05.971Z,1009.06
2018-11-29T01:40:05.948Z,1009.07
2018-11-29T01:41:05.961Z,1009.02
2018-11-29T01:42:05.936Z,1009.04
2018-11-29T01:43:05.916Z,1009.08
2018-11-29T01:44:05.908Z,1009.08
2018-11-29T01:45:05.895Z,1009.09
2018-11-29T01:46:05.912Z,1009.11
2018-11-29T01:47:05.879Z,1009.07
2018-11-29T01:48:05.859Z,1009.05
2018-11-29T01:49:05.850Z,1009.04
2018-11-29T01:50:05.843Z,1009.05
2018-11-29T01:51:05.826Z,1009.06
2018-11-29T01:52:05.828Z,1009.04
2018-11-29T01:53:05.809Z,1009.07
2018-11-29T01:54:05.793Z,1009.09
2018-11-29T01:55:05.783Z,1009.08
2018-11-29T01:56:05.776Z,1009.10
2018-11-29T01:57:05.778Z,1009.07
2018-11-29T01:58:05.758Z,1009.07
2018-11-29T01:59:05.749Z,1009.07
2018-11-29T02:00:05.753Z,1009.10
2018-11-29T02:01:05.715Z,1009.06
2018-11-29T02:02:05.715Z,1009.05
2018-11-29T02:03:05.694Z,1009.03
2018-11-29T02:04:05.687Z,1009.02
2018-11-29T02:05:05.670Z,1009.06
2018-11-29T02:06:05.657Z,1009.03
2018-11-29T02:07:05.661Z,1008.98
2018-11-29T02:08:05.643Z,1008.99
2018-11-29T02:09:05.632Z,1008.97
2018-11-29T02:10:05.625Z,1008.97
2018-11-29T02:11:05.604Z,1008.92
2018-11-29T02:12:05.604Z,1008.90
2018-11-29T02:13:05.591Z,1008.87
2018-11-29T02:14:05.568Z,1008.82
2018-11-29T02:15:05.558Z,1008.83
2018-11-29T02:16:05.556Z,1008.85
2018-11-29T02:17:05.557Z,1008.83
2018-11-29T02:18:05.525Z,1008.92
2018-11-29T02:19:05.515Z,1008.93
2018-11-29T02:20:05.505Z,1008.90
2018-11-29T02:21:05.493Z,1008.89
2018-11-29T02:22:05.504Z,1008.88
2018-11-29T02:23:05.483Z,1008.88
2018-11-29T02:24:05.464Z,1008.90
2018-11-29T02:25:05.446Z,1008.89
2018-11-29T02:26:05.456Z,1008.89
2018-11-29T02:27:05.435Z,1008.89
2018-11-29T02:28:05.413Z,1008.93
2018-11-29T02:29:05.401Z,1008.89
2018-11-29T02:30:05.393Z,1008.88
2018-11-29T02:31:05.394Z,1008.86
2018-11-29T02:32:05.398Z,1008.86
2018-11-29T02:33:05.384Z,1008.86
2018-11-29T02:34:05.346Z,1008.85
2018-11-29T02:35:05.335Z,1008.81
2018-11-29T02:36:05.323Z,1008.84
2018-11-29T02:37:05.315Z,1008.81
2018-11-29T02:38:05.323Z,1008.84
2018-11-29T02:39:05.291Z,1008.87
2018-11-29T02:40:05.279Z,1008.89
2018-11-29T02:41:05.267Z,1008.88
2018-11-29T02:42:05.259Z,1008.84
2018-11-29T02:43:05.256Z,1008.89
2018-11-29T02:44:05.237Z,1008.85
2018-11-29T02:45:05.224Z,1008.84
2018-11-29T02:46:05.241Z,1008.82
2018-11-29T02:47:05.201Z,1008.82
2018-11-29T02:48:05.201Z,1008.81
2018-11-29T02:49:05.190Z,1008.72
2018-11-29T02:50:05.181Z,1008.71
2018-11-29T02:51:05.156Z,1008.70
2018-11-29T02:52:05.152Z,1008.64
2018-11-29T02:53:05.147Z,1008.58
2018-11-29T02:54:05.123Z,1008.59
2018-11-29T02:55:05.114Z,1008.59
2018-11-29T02:56:05.111Z,1008.57
2018-11-29T02:57:05.089Z,1008.59
2018-11-29T02:58:05.089Z,1008.63
2018-11-29T02:59:05.066Z,1008.57
2018-11-29T03:00:05.057Z,1008.61
2018-11-29T03:01:05.057Z,1008.60
2018-11-29T03:02:05.057Z,1008.61
2018-11-29T03:03:05.032Z,1008.64
2018-11-29T03:04:05.011Z,1008.62
2018-11-29T03:05:04.999Z,1008.57
2018-11-29T03:06:04.990Z,1008.58
2018-11-29T03:07:04.985Z,1008.59
2018-11-29T03:08:04.991Z,1008.63
2018-11-29T03:09:04.976Z,1008.65
2018-11-29T03:10:04.945Z,1008.73
2018-11-29T03:11:04.933Z,1008.71
2018-11-29T03:12:04.925Z,1008.77
2018-11-29T03:13:04.925Z,1008.74
2018-11-29T03:14:04.902Z,1008.73
2018-11-29T03:15:04.888Z,1008.75
2018-11-29T03:16:04.882Z,1008.68
2018-11-29T03:17:04.875Z,1008.67
2018-11-29T03:18:04.883Z,1008.61
2018-11-29T03:19:04.911Z,1008.66
2018-11-29T03:20:04.833Z,1008.65
2018-11-29T03:21:04.822Z,1008.63
2018-11-29T03:22:04.817Z,1008.53
2018-11-29T03:23:04.818Z,1008.60
2018-11-29T03:24:04.790Z,1008.58
2018-11-29T03:25:04.776Z,1008.55
2018-11-29T03:26:04.766Z,1008.57
2018-11-29T03:27:04.759Z,1008.52
2018-11-29T03:28:04.760Z,1008.55
2018-11-29T03:29:04.739Z,1008.59
2018-11-29T03:30:04.736Z,1008.54
2018-11-29T03:31:04.709Z,1008.55
2018-11-29T03:32:04.724Z,1008.57
2018-11-29T03:33:04.721Z,1008.55
2018-11-29T03:34:04.676Z,1008.54
2018-11-29T03:35:04.664Z,1008.52
2018-11-29T03:36:04.675Z,1008.52
2018-11-29T03:37:04.646Z,1008.55
2018-11-29T03:38:04.632Z,1008.52
2018-11-29T03:39:04.631Z,1008.53
2018-11-29T03:40:04.617Z,1008.52
2018-11-29T03:41:04.603Z,1008.50
2018-11-29T03:42:04.588Z,1008.46
2018-11-29T03:43:04.575Z,1008.54
2018-11-29T03:44:04.575Z,1008.56
2018-11-29T03:45:04.559Z,1008.54
2018-11-29T03:46:04.560Z,1008.60
2018-11-29T03:47:04.542Z,1008.60
2018-11-29T03:48:04.523Z,1008.60
2018-11-29T03:49:04.521Z,1008.63
2018-11-29T03:50:04.497Z,1008.62
2018-11-29T03:51:04.485Z,1008.61
2018-11-29T03:52:04.479Z,1008.58
2018-11-29T03:53:04.468Z,1008.61
2018-11-29T03:54:04.483Z,1008.59
2018-11-29T03:55:04.456Z,1008.56
2018-11-29T03:56:04.431Z,1008.54
2018-11-29T03:57:04.422Z,1008.59
2018-11-29T03:58:04.411Z,1008.57
2018-11-29T03:59:04.413Z,1008.53
2018-11-29T04:00:04.385Z,1008.52
2018-11-29T04:01:04.373Z,1008.51
2018-11-29T04:02:04.371Z,1008.51
2018-11-29T04:03:04.352Z,1008.48
2018-11-29T04:04:04.352Z,1008.50
2018-11-29T04:05:04.350Z,1008.52
2018-11-29T04:06:04.319Z,1008.52
2018-11-29T04:07:04.306Z,1008.53
2018-11-29T04:08:04.305Z,1008.55
2018-11-29T04:09:04.301Z,1008.62
2018-11-29T04:10:04.285Z,1008.57
2018-11-29T04:11:04.264Z,1008.53
2018-11-29T04:12:04.255Z,1008.55
2018-11-29T04:13:04.239Z,1008.64
2018-11-29T04:14:04.242Z,1008.58
2018-11-29T04:15:04.219Z,1008.55
2018-11-29T04:16:04.209Z,1008.52
2018-11-29T04:17:04.194Z,1008.51
2018-11-29T04:18:04.198Z,1008.54
2018-11-29T04:19:04.184Z,1008.51
2018-11-29T04:20:04.163Z,1008.48
2018-11-29T04:21:04.153Z,1008.48
2018-11-29T04:22:04.154Z,1008.47
2018-11-29T04:23:04.131Z,1008.51
2018-11-29T04:24:04.141Z,1008.47
2018-11-29T04:25:04.105Z,1008.45
2018-11-29T04:26:04.098Z,1008.46
2018-11-29T04:27:04.091Z,1008.45
2018-11-29T04:28:04.075Z,1008.42
2018-11-29T04:29:04.061Z,1008.43
2018-11-29T04:30:04.061Z,1008.41
2018-11-29T04:31:04.059Z,1008.38
2018-11-29T04:32:04.028Z,1008.40
2018-11-29T04:33:04.023Z,1008.40
2018-11-29T04:34:04.007Z,1008.36
2018-11-29T04:35:04.007Z,1008.36
2018-11-29T04:36:03.984Z,1008.37
2018-11-29T04:37:03.972Z,1008.44
2018-11-29T04:38:03.962Z,1008.38
2018-11-29T04:39:03.963Z,1008.41
2018-11-29T04:40:03.951Z,1008.40
2018-11-29T04:41:04.013Z,1008.41
2018-11-29T04:42:03.917Z,1008.43
2018-11-29T04:43:03.912Z,1008.37
2018-11-29T04:44:03.901Z,1008.40
2018-11-29T04:45:03.901Z,1008.40
2018-11-29T04:46:03.872Z,1008.37
2018-11-29T04:47:03.861Z,1008.37
2018-11-29T04:48:09.855Z,1008.42
2018-11-29T04:49:04.855Z,1008.42
2018-11-29T04:50:03.843Z,1008.41
2018-11-29T04:51:03.816Z,1008.39
2018-11-29T04:52:03.809Z,1008.38
2018-11-29T04:53:03.793Z,1008.35
2018-11-29T04:54:03.790Z,1008.34
2018-11-29T04:55:03.783Z,1008.38
2018-11-29T04:56:03.777Z,1008.34
2018-11-29T04:57:03.750Z,1008.33
2018-11-29T04:58:03.737Z,1008.31
2018-11-29T04:59:03.726Z,1008.26
2018-11-29T05:00:03.727Z,1008.24
2018-11-29T05:01:03.712Z,1008.25
2018-11-29T05:02:03.693Z,1008.26
2018-11-29T05:03:03.684Z,1008.25
2018-11-29T05:04:03.694Z,1008.25
2018-11-29T05:05:03.686Z,1008.23
2018-11-29T05:06:03.650Z,1008.23
2018-11-29T05:07:03.642Z,1008.24
2018-11-29T05:08:03.629Z,1008.19
2018-11-29T05:09:03.615Z,1008.25
2018-11-29T05:10:03.618Z,1008.20
2018-11-29T05:11:03.593Z,1008.29
2018-11-29T05:12:03.586Z,1008.24
2018-11-29T05:13:03.571Z,1008.24
2018-11-29T05:14:03.558Z,1008.27
2018-11-29T05:15:03.560Z,1008.22
2018-11-29T05:16:03.537Z,1008.23
2018-11-29T05:17:03.539Z,1008.18
2018-11-29T05:18:03.518Z,1008.18
2018-11-29T05:19:03.524Z,1008.18
2018-11-29T05:20:03.502Z,1008.17
2018-11-29T05:21:03.482Z,1008.17
2018-11-29T05:22:03.471Z,1008.13
2018-11-29T05:23:03.459Z,1008.17
2018-11-29T05:24:03.457Z,1008.18
2018-11-29T05:25:03.454Z,1008.21
2018-11-29T05:26:03.427Z,1008.17
2018-11-29T05:27:03.437Z,1008.19
2018-11-29T05:28:03.406Z,1008.23
2018-11-29T05:29:03.394Z,1008.25
2018-11-29T05:30:03.395Z,1008.21
2018-11-29T05:31:03.411Z,1008.26
2018-11-29T05:32:03.359Z,1008.20
2018-11-29T05:33:03.355Z,1008.12
2018-11-29T05:34:03.334Z,1008.13
2018-11-29T05:35:03.339Z,1008.16
2018-11-29T05:36:03.322Z,1008.13
2018-11-29T05:37:03.302Z,1008.13
2018-11-29T05:38:03.292Z,1008.19
2018-11-29T05:39:03.280Z,1008.20
2018-11-29T05:40:03.281Z,1008.11
2018-11-29T05:41:03.260Z,1008.14
2018-11-29T05:42:03.273Z,1008.13
2018-11-29T05:43:03.235Z,1008.13
2018-11-29T05:44:03.224Z,1008.12
2018-11-29T05:45:03.224Z,1008.17
2018-11-29T05:46:03.202Z,1008.13
2018-11-29T05:47:03.189Z,1008.17
2018-11-29T05:48:03.179Z,1008.12
2018-11-29T05:49:03.171Z,1008.10
2018-11-29T05:50:03.187Z,1008.11
2018-11-29T05:51:03.145Z,1008.08
2018-11-29T05:52:03.134Z,1008.12
2018-11-29T05:53:03.125Z,1008.13
2018-11-29T05:54:03.112Z,1008.13
2018-11-29T05:55:03.102Z,1008.12
2018-11-29T05:56:03.100Z,1008.11
2018-11-29T05:57:03.078Z,1008.05
2018-11-29T05:58:03.067Z,1008.09
2018-11-29T05:59:03.060Z,1008.09
2018-11-29T06:00:03.044Z,1008.13
2018-11-29T06:01:03.045Z,1008.12
2018-11-29T06:02:03.025Z,1008.15
2018-11-29T06:03:03.031Z,1008.12
2018-11-29T06:04:03.002Z,1008.12
2018-11-29T06:05:02.988Z,1008.10
2018-11-29T06:06:02.989Z,1008.07
2018-11-29T06:07:02.969Z,1008.10
2018-11-29T06:08:02.959Z,1008.08
2018-11-29T06:09:02.946Z,1008.04
2018-11-29T06:10:02.932Z,1008.10
2018-11-29T06:11:02.941Z,1008.04
2018-11-29T06:12:02.910Z,1008.04
2018-11-29T06:13:02.931Z,1008.10
2018-11-29T06:14:02.888Z,1008.10
2018-11-29T06:15:02.879Z,1008.05
2018-11-29T06:16:02.878Z,1008.01
2018-11-29T06:17:02.857Z,1008.01
2018-11-29T06:18:02.844Z,1008.00
2018-11-29T06:19:02.836Z,1008.00
2018-11-29T06:20:02.823Z,1008.02
2018-11-29T06:21:02.822Z,1008.02
2018-11-29T06:22:02.802Z,1008.05
2018-11-29T06:23:02.790Z,1007.97
2018-11-29T06:24:02.782Z,1008.00
2018-11-29T06:25:02.798Z,1008.02
2018-11-29T06:26:02.786Z,1008.03
2018-11-29T06:27:02.752Z,1008.06
2018-11-29T06:28:02.732Z,1008.01
2018-11-29T06:29:02.721Z,1007.98
2018-11-29T06:30:02.711Z,1007.98
2018-11-29T06:31:02.711Z,1008.00
2018-11-29T06:32:02.687Z,1007.99
2018-11-29T06:33:02.687Z,1008.02
2018-11-29T06:34:02.665Z,1007.99
2018-11-29T06:35:02.654Z,1007.99
2018-11-29T06:36:02.674Z,1008.01
2018-11-29T06:37:02.632Z,1007.99
2018-11-29T06:38:02.622Z,1007.96
2018-11-29T06:39:02.614Z,1007.97
2018-11-29T06:40:02.598Z,1007.94
2018-11-29T06:41:02.600Z,1007.98
2018-11-29T06:42:02.577Z,1007.95
2018-11-29T06:43:02.573Z,1007.96
2018-11-29T06:44:02.556Z,1007.94
2018-11-29T06:45:02.543Z,1007.93
2018-11-29T06:46:02.544Z,1007.88
2018-11-29T06:47:02.519Z,1007.91
2018-11-29T06:48:02.511Z,1007.93
2018-11-29T06:49:02.541Z,1007.95
2018-11-29T06:50:02.491Z,1007.95
2018-11-29T06:51:02.496Z,1007.94
2018-11-29T06:52:02.463Z,1007.94
2018-11-29T06:53:02.454Z,1007.94
2018-11-29T06:54:02.444Z,1007.93
2018-11-29T06:55:02.429Z,1007.95
2018-11-29T06:56:02.431Z,1007.91
2018-11-29T06:57:02.407Z,1007.93
2018-11-29T06:58:02.397Z,1007.93
2018-11-29T06:59:02.397Z,1007.89
2018-11-29T07:00:02.374Z,1007.91
2018-11-29T07:01:02.376Z,1007.91
2018-11-29T07:02:02.352Z,1007.89
2018-11-29T07:03:02.342Z,1007.92
2018-11-29T07:04:02.329Z,1007.91
2018-11-29T07:05:02.317Z,1007.90
2018-11-29T07:06:02.322Z,1007.86
2018-11-29T07:07:02.296Z,1007.89
2018-11-29T07:08:02.285Z,1007.83
2018-11-29T07:09:02.283Z,1007.82
2018-11-29T07:10:02.264Z,1007.81
2018-11-29T07:11:02.279Z,1007.78
2018-11-29T07:12:02.251Z,1007.78
2018-11-29T07:13:02.235Z,1007.71
2018-11-29T07:14:02.217Z,1007.76
2018-11-29T07:15:02.206Z,1007.75
2018-11-29T07:16:02.197Z,1007.73
2018-11-29T07:17:02.196Z,1007.71
2018-11-29T07:18:02.177Z,1007.78
2018-11-29T07:19:02.162Z,1007.69
2018-11-29T07:20:02.153Z,1007.74
2018-11-29T07:21:02.141Z,1007.74
2018-11-29T07:22:02.154Z,1007.72
2018-11-29T07:23:02.117Z,1007.74
2018-11-29T07:24:02.106Z,1007.77
2018-11-29T07:25:02.099Z,1007.76
2018-11-29T07:26:02.082Z,1007.75
2018-11-29T07:27:02.084Z,1007.75
2018-11-29T07:28:02.061Z,1007.79
2018-11-29T07:29:02.052Z,1007.74
2018-11-29T07:30:02.040Z,1007.75
2018-11-29T07:31:02.030Z,1007.73
2018-11-29T07:32:02.027Z,1007.73
2018-11-29T07:33:02.009Z,1007.70
2018-11-29T07:34:01.996Z,1007.68
2018-11-29T07:35:02.001Z,1007.64
2018-11-29T07:36:01.978Z,1007.63
2018-11-29T07:37:01.973Z,1007.60
2018-11-29T07:38:01.953Z,1007.61
2018-11-29T07:39:01.939Z,1007.58
2018-11-29T07:40:01.927Z,1007.56
2018-11-29T07:41:01.917Z,1007.54
2018-11-29T07:42:01.924Z,1007.55
2018-11-29T07:43:01.895Z,1007.53
2018-11-29T07:44:01.885Z,1007.53
2018-11-29T07:45:01.892Z,1007.51
2018-11-29T07:46:01.868Z,1007.52
2018-11-29T07:47:01.877Z,1007.52
2018-11-29T07:48:01.838Z,1007.53
2018-11-29T07:49:01.827Z,1007.49
2018-11-29T07:50:01.815Z,1007.49
2018-11-29T07:51:01.806Z,1007.48
2018-11-29T07:52:01.793Z,1007.50
2018-11-29T07:53:01.798Z,1007.47
2018-11-29T07:54:01.773Z,1007.47
2018-11-29T07:55:01.760Z,1007.50
2018-11-29T07:56:01.749Z,1007.49
2018-11-29T07:57:01.735Z,1007.50
2018-11-29T07:58:01.768Z,1007.47
2018-11-29T07:59:01.715Z,1007.51
2018-11-29T08:00:01.703Z,1007.52
2018-11-29T08:01:01.694Z,1007.49
2018-11-29T08:02:01.739Z,1007.52
2018-11-29T08:03:01.682Z,1007.45
2018-11-29T08:04:01.693Z,1007.39
2018-11-29T08:05:01.648Z,1007.41
2018-11-29T08:06:01.639Z,1007.46
2018-11-29T08:07:01.624Z,1007.44
2018-11-29T08:08:01.638Z,1007.39
2018-11-29T08:09:01.603Z,1007.42
2018-11-29T08:10:01.592Z,1007.36
2018-11-29T08:11:01.584Z,1007.40
2018-11-29T08:12:01.575Z,1007.44
2018-11-29T08:13:01.569Z,1007.45
2018-11-29T08:14:01.547Z,1007.46
2018-11-29T08:15:01.537Z,1007.44
2018-11-29T08:16:01.531Z,1007.42
2018-11-29T08:17:01.513Z,1007.45
2018-11-29T08:18:01.516Z,1007.48
2018-11-29T08:19:01.492Z,1007.48
2018-11-29T08:20:01.482Z,1007.46
2018-11-29T08:21:01.480Z,1007.42
2018-11-29T08:22:01.459Z,1007.41
2018-11-29T08:23:01.457Z,1007.47
2018-11-29T08:24:01.435Z,1007.45
2018-11-29T08:25:01.424Z,1007.44
2018-11-29T08:26:01.420Z,1007.47
2018-11-29T08:27:01.402Z,1007.43
2018-11-29T08:28:01.467Z,1007.44
2018-11-29T08:29:01.384Z,1007.39
2018-11-29T08:30:01.377Z,1007.38
2018-11-29T08:31:01.374Z,1007.41
2018-11-29T08:32:01.346Z,1007.35
2018-11-29T08:33:01.339Z,1007.33
2018-11-29T08:34:01.335Z,1007.27
2018-11-29T08:35:01.400Z,1007.33
2018-11-29T08:36:01.302Z,1007.31
2018-11-29T08:37:01.292Z,1007.26
2018-11-29T08:38:01.281Z,1007.30
2018-11-29T08:39:01.280Z,1007.27
2018-11-29T08:40:01.262Z,1007.24
2018-11-29T08:41:01.246Z,1007.22
2018-11-29T08:42:01.234Z,1007.23
2018-11-29T08:43:01.223Z,1007.25
2018-11-29T08:44:01.243Z,1007.21
2018-11-29T08:45:01.204Z,1007.21
2018-11-29T08:46:01.190Z,1007.21
2018-11-29T08:47:01.180Z,1007.17
2018-11-29T08:48:01.167Z,1007.20
2018-11-29T08:49:01.170Z,1007.18
2018-11-29T08:50:01.149Z,1007.19
2018-11-29T08:51:01.134Z,1007.14
2018-11-29T08:52:01.124Z,1007.17
2018-11-29T08:53:01.113Z,1007.17
2018-11-29T08:54:01.151Z,1007.20
2018-11-29T08:55:01.090Z,1007.20
2018-11-29T08:56:01.084Z,1007.19
2018-11-29T08:57:01.073Z,1007.14
2018-11-29T08:58:01.055Z,1007.14
2018-11-29T08:59:01.044Z,1007.13
2018-11-29T09:00:01.046Z,1007.11
2018-11-29T09:01:01.023Z,1007.11
2018-11-29T09:02:01.011Z,1007.09
2018-11-29T09:03:01.002Z,1007.08
2018-11-29T09:04:00.988Z,1007.08
2018-11-29T09:05:00.989Z,1007.07
2018-11-29T09:06:00.975Z,1007.08
2018-11-29T09:07:00.969Z,1007.06
2018-11-29T09:08:00.956Z,1007.11
2018-11-29T09:09:00.936Z,1007.07
2018-11-29T09:10:00.933Z,1007.06
2018-11-29T09:11:00.911Z,1007.04
2018-11-29T09:12:00.901Z,1007.03
2018-11-29T09:13:00.892Z,1007.00
2018-11-29T09:14:00.880Z,1006.97
2018-11-29T09:15:00.877Z,1007.02
2018-11-29T09:16:00.855Z,1006.99
2018-11-29T09:17:00.866Z,1007.06
2018-11-29T09:18:00.834Z,1007.09
2018-11-29T09:19:00.838Z,1007.09
2018-11-29T09:20:00.826Z,1007.05
2018-11-29T09:21:00.800Z,1007.03
2018-11-29T09:22:00.788Z,1007.01
2018-11-29T09:23:00.777Z,1007.01
2018-11-29T09:24:00.768Z,1007.03
2018-11-29T09:25:00.768Z,1007.03
2018-11-29T09:26:00.744Z,1007.01
2018-11-29T09:27:00.733Z,1006.98
2018-11-29T09:28:00.722Z,1007.02
2018-11-29T09:29:00.718Z,1007.02
2018-11-29T09:30:00.758Z,1007.02
2018-11-29T09:31:00.687Z,1006.98
2018-11-29T09:32:00.675Z,1007.00
2018-11-29T09:33:00.665Z,1006.98
2018-11-29T09:34:00.657Z,1006.95
2018-11-29T09:35:00.644Z,1006.98
2018-11-29T09:36:00.643Z,1006.92
2018-11-29T09:37:00.622Z,1006.94
2018-11-29T09:38:00.611Z,1006.92
2018-11-29T09:39:00.602Z,1006.94
2018-11-29T09:40:00.612Z,1006.96
2018-11-29T09:41:00.587Z,1006.90
2018-11-29T09:42:00.566Z,1006.88
2018-11-29T09:43:00.553Z,1006.85
2018-11-29T09:44:00.545Z,1006.91
2018-11-29T09:45:00.532Z,1006.92
2018-11-29T09:46:00.534Z,1006.94
2018-11-29T09:47:00.514Z,1006.90
2018-11-29T09:48:00.498Z,1006.82
2018-11-29T09:49:00.488Z,1006.85
2018-11-29T09:50:00.480Z,1006.85
2018-11-29T09:51:00.485Z,1006.84
2018-11-29T09:52:00.454Z,1006.83
2018-11-29T09:53:00.455Z,1006.82
2018-11-29T09:54:00.430Z,1006.81
2018-11-29T09:55:00.433Z,1006.80
2018-11-29T09:56:00.422Z,1006.80
2018-11-29T09:57:00.397Z,1006.84
2018-11-29T09:58:00.394Z,1006.87
2018-11-29T09:59:00.385Z,1006.85
2018-11-29T10:00:00.365Z,1006.90
2018-11-29T10:01:00.365Z,1006.88
2018-11-29T10:02:00.342Z,1006.90
2018-11-29T10:03:00.367Z,1006.85
2018-11-29T10:04:00.331Z,1006.85
2018-11-29T10:05:00.310Z,1006.81
2018-11-29T10:06:00.309Z,1006.81
2018-11-29T10:07:00.287Z,1006.79
2018-11-29T10:08:00.281Z,1006.81
2018-11-29T10:09:00.264Z,1006.79
2018-11-29T10:10:00.257Z,1006.80
2018-11-29T10:11:00.263Z,1006.83
2018-11-29T10:12:00.230Z,1006.87
2018-11-29T10:13:00.220Z,1006.82
2018-11-29T10:14:00.208Z,1006.79
2018-11-29T10:15:00.197Z,1006.83
2018-11-29T10:16:00.220Z,1006.77
2018-11-29T10:17:00.174Z,1006.79
2018-11-29T10:18:00.164Z,1006.78
2018-11-29T10:19:00.153Z,1006.81
2018-11-29T10:20:00.150Z,1006.85
2018-11-29T10:21:00.163Z,1006.83
2018-11-29T10:22:00.121Z,1006.89
2018-11-29T10:23:00.108Z,1006.91
2018-11-29T10:24:00.097Z,1006.90
2018-11-29T10:25:00.093Z,1006.91
2018-11-29T10:26:00.102Z,1006.93
2018-11-29T10:27:00.068Z,1006.92
2018-11-29T10:28:00.052Z,1006.97
2018-11-29T10:29:00.039Z,1006.96
2018-11-29T10:30:00.031Z,1006.96
2018-11-29T10:31:00.032Z,1006.91
2018-11-29T10:32:00.008Z,1006.82
2018-11-29T10:33:00.000Z,1006.97
2018-11-29T10:33:59.985Z,1006.97
2018-11-29T10:34:59.976Z,1006.95
2018-11-29T10:35:59.974Z,1006.95
2018-11-29T10:36:59.952Z,1006.97
2018-11-29T10:37:59.940Z,1006.96
2018-11-29T10:38:59.940Z,1006.90
2018-11-29T10:39:59.919Z,1006.87
2018-11-29T10:40:59.937Z,1006.85
2018-11-29T10:41:59.896Z,1006.84
2018-11-29T10:42:59.884Z,1006.83
2018-11-29T10:43:59.877Z,1006.85
2018-11-29T10:44:59.862Z,1006.84
2018-11-29T10:45:59.850Z,1006.87
2018-11-29T10:46:59.856Z,1006.79
2018-11-29T10:47:59.829Z,1006.82
2018-11-29T10:48:59.839Z,1006.79
2018-11-29T10:49:59.810Z,1006.76
2018-11-29T10:50:59.795Z,1006.76
2018-11-29T10:51:59.801Z,1006.76
2018-11-29T10:52:59.774Z,1006.73
2018-11-29T10:53:59.762Z,1006.74
2018-11-29T10:54:59.751Z,1006.74
2018-11-29T10:55:59.747Z,1006.70
2018-11-29T10:56:59.947Z,1006.68
2018-11-29T10:57:59.717Z,1006.66
2018-11-29T10:58:59.706Z,1006.62
2018-11-29T10:59:59.696Z,1006.64
2018-11-29T11:00:59.685Z,1006.61
2018-11-29T11:01:59.702Z,1006.55
2018-11-29T11:02:59.661Z,1006.60
2018-11-29T11:03:59.652Z,1006.63
2018-11-29T11:04:59.643Z,1006.60
2018-11-29T11:05:59.635Z,1006.63
2018-11-29T11:06:59.629Z,1006.59
2018-11-29T11:07:59.606Z,1006.60
2018-11-29T11:08:59.594Z,1006.54
2018-11-29T11:09:59.583Z,1006.52
2018-11-29T11:10:59.577Z,1006.45
2018-11-29T11:11:59.587Z,1006.50
2018-11-29T11:12:59.553Z,1006.47
2018-11-29T11:13:59.538Z,1006.44
2018-11-29T11:14:59.527Z,1006.46
2018-11-29T11:15:59.517Z,1006.47
2018-11-29T11:16:59.519Z,1006.41
2018-11-29T11:17:59.495Z,1006.41
2018-11-29T11:18:59.483Z,1006.40
2018-11-29T11:19:59.475Z,1006.35
2018-11-29T11:20:59.461Z,1006.35
2018-11-29T11:21:59.465Z,1006.29
2018-11-29T11:22:59.440Z,1006.27
2018-11-29T11:23:59.516Z,1006.28
2018-11-29T11:24:59.429Z,1006.24
2018-11-29T11:25:59.421Z,1006.21
2018-11-29T11:26:59.407Z,1006.14
2018-11-29T11:27:59.383Z,1006.17
2018-11-29T11:28:59.376Z,1006.16
2018-11-29T11:29:59.363Z,1006.16
2018-11-29T11:30:59.348Z,1006.13
2018-11-29T11:31:59.348Z,1006.11
2018-11-29T11:32:59.326Z,1006.08
2018-11-29T11:33:59.315Z,1006.00
2018-11-29T11:34:59.319Z,1005.99
2018-11-29T11:35:59.295Z,1005.97
2018-11-29T11:36:59.311Z,1005.92
2018-11-29T11:37:59.271Z,1005.89
2018-11-29T11:38:59.258Z,1005.96
2018-11-29T11:39:59.283Z,1005.97
2018-11-29T11:40:59.243Z,1005.94
2018-11-29T11:41:59.226Z,1005.99
2018-11-29T11:42:59.227Z,1005.97
2018-11-29T11:43:59.203Z,1005.97
2018-11-29T11:44:59.193Z,1005.95
2018-11-29T11:45:59.209Z,1005.93
2018-11-29T11:46:59.171Z,1005.88
2018-11-29T11:48:03.285Z,1005.84
2018-11-29T11:48:59.181Z,1005.81
2018-11-29T11:49:59.143Z,1005.83
2018-11-29T11:50:59.124Z,1005.76
2018-11-29T11:51:59.118Z,1005.78
2018-11-29T11:52:59.119Z,1005.78
2018-11-29T11:53:59.093Z,1005.71
2018-11-29T11:54:59.082Z,1005.70
2018-11-29T11:55:59.071Z,1005.72
2018-11-29T11:56:59.065Z,1005.69
2018-11-29T11:57:59.075Z,1005.69
2018-11-29T11:58:59.036Z,1005.62
2018-11-29T11:59:59.028Z,1005.54
2018-11-29T12:00:59.016Z,1005.52
2018-11-29T12:01:59.005Z,1005.51
2018-11-29T12:02:59.002Z,1005.51
2018-11-29T12:03:59.953Z,1005.52
2018-11-29T12:04:58.970Z,1005.52